Time;durP1;ratioP1;P1;durP2;ratioP2;P2;SDS_P1;SDS_P2;PMS_P1;PMS_P2;Temp;Humidity;BMP_temperature;BMP_pressure;BME280_temperature;BME280_humidity;BME280_pressure;Samples;Min_cycle;Max_cycle;Signal;HPM_P1;HPM_P2
2021/01/01 00:01:36;;;;;;;;;;;13.70;75.70;;;;;;4225792;28;19920;-40
2021/01/01 00:03:57;;;;;;;;;;;13.70;76.00;;;;;;4229702;28;19930;-40
2021/01/01 00:06:17;;;;;;;;;;;13.70;76.10;;;;;;4229427;28;19924;-40
2021/01/01 00:08:39;;;;;;;;;;;13.70;76.20;;;;;;4230563;28;20380;-40
2021/01/01 00:11:00;;;;;;;;;;;13.70;76.20;;;;;;4230288;28;19948;-40
2021/01/01 00:13:21;;;;;;;;;;;13.70;76.30;;;;;;4230371;28;19923;-40
2021/01/01 00:15:41;;;;;;;;;;;13.70;76.50;;;;;;4229996;28;19923;-40
2021/01/01 00:18:02;;;;;;;;;;;13.60;76.50;;;;;;4229739;28;20062;-40
2021/01/01 00:20:23;;;;;;;;;;;13.60;76.60;;;;;;4229831;28;19923;-40
2021/01/01 00:22:44;;;;;;;;;;;13.60;76.60;;;;;;4229963;28;20377;-40
2021/01/01 00:25:07;;;;;;;;;;;13.60;76.70;;;;;;4230327;28;20012;-40
2021/01/01 00:27:28;;;;;;;;;;;13.60;76.80;;;;;;4229969;28;19930;-39
2021/01/01 00:29:48;;;;;;;;;;;13.50;76.90;;;;;;4230270;28;19919;-40
2021/01/01 00:32:09;;;;;;;;;;;13.60;77.20;;;;;;4230164;28;20384;-40
2021/01/01 00:34:30;;;;;;;;;;;13.50;77.00;;;;;;4229162;28;19998;-40
2021/01/01 00:36:51;;;;;;;;;;;13.60;77.20;;;;;;4229340;28;19942;-40
2021/01/01 00:39:12;;;;;;;;;;;13.50;77.00;;;;;;4230072;28;20748;-40
2021/01/01 00:41:34;;;;;;;;;;;13.50;77.30;;;;;;4230144;28;19920;-40
2021/01/01 00:43:55;;;;;;;;;;;13.70;76.90;;;;;;4228224;28;19928;-39
2021/01/01 00:46:15;;;;;;;;;;;14.00;75.90;;;;;;4229575;28;19923;-39
2021/01/01 00:48:36;;;;;;;;;;;14.20;75.00;;;;;;4229766;28;19924;-40
2021/01/01 00:50:57;;;;;;;;;;;14.30;74.40;;;;;;4229781;28;19962;-40
2021/01/01 00:53:33;;;;;;;;;;;14.30;74.00;;;;;;4229322;28;19930;-40
2021/01/01 00:55:53;;;;;;;;;;;14.40;73.80;;;;;;4229243;28;20274;-40
2021/01/01 00:58:15;;;;;;;;;;;14.30;73.60;;;;;;4229409;28;20401;-40
2021/01/01 01:00:36;;;;;;;;;;;14.40;73.50;;;;;;4229446;28;19920;-40
2021/01/01 01:02:56;;;;;;;;;;;14.40;73.40;;;;;;4229345;28;20447;-40
2021/01/01 01:05:17;;;;;;;;;;;14.40;73.30;;;;;;4229493;28;20055;-40
2021/01/01 01:07:38;;;;;;;;;;;14.40;73.30;;;;;;4229221;28;20419;-41
2021/01/01 01:09:59;;;;;;;;;;;14.40;73.40;;;;;;4229384;28;19919;-40
2021/01/01 01:12:20;;;;;;;;;;;14.30;73.40;;;;;;4229550;28;19919;-41
2021/01/01 01:14:41;;;;;;;;;;;14.30;73.50;;;;;;4229009;28;19923;-40
2021/01/01 01:17:02;;;;;;;;;;;14.30;73.70;;;;;;4229776;28;19931;-40
2021/01/01 01:19:23;;;;;;;;;;;14.30;73.80;;;;;;4229080;28;19958;-41
2021/01/01 01:21:44;;;;;;;;;;;14.40;73.40;;;;;;4228972;28;19930;-40
2021/01/01 01:24:05;;;;;;;;;;;14.70;72.00;;;;;;4229174;28;19930;-40
2021/01/01 01:26:26;;;;;;;;;;;15.00;70.60;;;;;;4229511;28;20392;-43
2021/01/01 01:28:47;;;;;;;;;;;15.20;69.60;;;;;;4229526;28;19923;-40
2021/01/01 01:31:09;;;;;;;;;;;15.30;69.00;;;;;;4229225;28;19923;-40
2021/01/01 01:33:31;;;;;;;;;;;15.30;68.80;;;;;;4228754;28;20301;-41
2021/01/01 01:35:52;;;;;;;;;;;15.40;68.70;;;;;;4232655;28;20417;-40
2021/01/01 01:38:13;;;;;;;;;;;15.30;68.60;;;;;;4232329;28;19927;-40
2021/01/01 01:40:33;;;;;;;;;;;15.30;68.70;;;;;;4232448;28;20408;-43
2021/01/01 01:42:54;;;;;;;;;;;15.20;69.00;;;;;;4232316;28;19983;-41
2021/01/01 01:45:15;;;;;;;;;;;15.20;69.30;;;;;;4232382;28;19935;-41
2021/01/01 01:47:37;;;;;;;;;;;15.10;69.60;;;;;;4232612;28;19927;-41
2021/01/01 01:49:58;;;;;;;;;;;15.00;69.90;;;;;;4232376;27;20381;-40
2021/01/01 01:52:19;;;;;;;;;;;14.90;70.30;;;;;;4232259;28;19920;-41
2021/01/01 01:54:41;;;;;;;;;;;14.90;70.60;;;;;;4217207;28;19924;-41
2021/01/01 01:57:02;;;;;;;;;;;14.90;71.30;;;;;;4232056;28;19924;-40
2021/01/01 01:59:23;;;;;;;;;;;15.00;70.10;;;;;;4232746;27;19920;-40
2021/01/01 02:01:44;;;;;;;;;;;15.00;70.10;;;;;;4232695;28;19923;-40
2021/01/01 02:04:06;;;;;;;;;;;15.10;70.10;;;;;;4231770;28;19923;-40
2021/01/01 02:06:26;;;;;;;;;;;15.10;69.90;;;;;;4232046;28;19919;-41
2021/01/01 02:08:49;;;;;;;;;;;15.10;69.50;;;;;;4231757;28;20000;-40
2021/01/01 02:11:10;;;;;;;;;;;15.20;69.40;;;;;;4232285;28;19924;-40
2021/01/01 02:13:32;;;;;;;;;;;15.20;69.60;;;;;;4231964;28;20006;-40
2021/01/01 02:15:52;;;;;;;;;;;15.10;69.70;;;;;;4231900;28;20022;-41
2021/01/01 02:18:30;;;;;;;;;;;15.20;70.20;;;;;;4231569;28;19930;-40
2021/01/01 02:20:51;;;;;;;;;;;15.50;68.10;;;;;;4232313;28;19928;-41
2021/01/01 02:23:13;;;;;;;;;;;15.80;66.70;;;;;;4232301;27;20361;-40
2021/01/01 02:25:34;;;;;;;;;;;16.00;65.80;;;;;;4231577;28;19963;-40
2021/01/01 02:27:55;;;;;;;;;;;16.10;65.30;;;;;;4231626;28;20297;-41
2021/01/01 02:30:16;;;;;;;;;;;16.20;65.00;;;;;;4230888;28;20022;-41
2021/01/01 02:32:37;;;;;;;;;;;16.10;65.00;;;;;;4230901;28;20294;-40
2021/01/01 02:34:57;;;;;;;;;;;16.10;65.30;;;;;;4230702;28;19992;-41
2021/01/01 02:37:18;;;;;;;;;;;16.00;65.50;;;;;;4231512;28;19924;-40
2021/01/01 02:39:40;;;;;;;;;;;16.10;65.40;;;;;;4231525;28;19923;-40
2021/01/01 02:42:01;;;;;;;;;;;16.10;65.30;;;;;;4231339;28;19919;-40
2021/01/01 02:44:21;;;;;;;;;;;16.00;65.40;;;;;;4231387;28;20320;-40
2021/01/01 02:46:42;;;;;;;;;;;16.00;65.70;;;;;;4231470;28;19924;-40
2021/01/01 02:49:03;;;;;;;;;;;15.90;65.90;;;;;;4230235;28;19927;-40
2021/01/01 02:51:24;;;;;;;;;;;16.10;65.50;;;;;;4231294;28;19938;-41
2021/01/01 02:53:45;;;;;;;;;;;16.20;65.70;;;;;;4229341;28;20322;-40
2021/01/01 02:56:07;;;;;;;;;;;16.30;64.70;;;;;;4231193;28;19923;-40
2021/01/01 02:58:28;;;;;;;;;;;16.30;64.70;;;;;;4231277;27;20365;-40
2021/01/01 03:00:49;;;;;;;;;;;16.30;64.40;;;;;;4230529;28;20329;-40
2021/01/01 03:03:10;;;;;;;;;;;16.40;64.00;;;;;;4231017;28;19930;-40
2021/01/01 03:05:31;;;;;;;;;;;16.60;63.40;;;;;;4231061;28;19923;-41
2021/01/01 03:07:51;;;;;;;;;;;16.80;62.30;;;;;;4230981;27;19927;-40
2021/01/01 03:10:12;;;;;;;;;;;17.00;61.70;;;;;;4231347;27;19919;-40
2021/01/01 03:12:34;;;;;;;;;;;16.90;61.60;;;;;;4231125;28;19928;-41
2021/01/01 03:14:54;;;;;;;;;;;16.90;61.80;;;;;;4230232;28;20014;-40
2021/01/01 03:17:15;;;;;;;;;;;16.90;62.00;;;;;;4230440;27;20401;-40
2021/01/01 03:19:36;;;;;;;;;;;16.90;61.60;;;;;;4231151;28;19930;-41
2021/01/01 03:21:57;;;;;;;;;;;16.90;61.60;;;;;;4231011;28;19919;-41
2021/01/01 03:24:17;;;;;;;;;;;16.80;61.90;;;;;;4230504;28;19923;-41
2021/01/01 03:26:39;;;;;;;;;;;16.80;62.20;;;;;;4230703;28;19981;-40
2021/01/01 03:29:01;;;;;;;;;;;16.80;62.20;;;;;;4230658;28;19927;-40
2021/01/01 03:31:21;;;;;;;;;;;16.80;62.30;;;;;;4230567;28;19924;-40
2021/01/01 03:33:42;;;;;;;;;;;16.70;62.60;;;;;;4230855;28;20023;-41
2021/01/01 03:36:03;;;;;;;;;;;16.60;63.00;;;;;;4230709;28;19934;-40
2021/01/01 03:38:24;;;;;;;;;;;16.60;63.00;;;;;;4230462;28;19923;-40
2021/01/01 03:40:46;;;;;;;;;;;16.60;62.90;;;;;;4231146;28;19977;-40
2021/01/01 03:43:06;;;;;;;;;;;16.60;64.00;;;;;;4230153;28;19923;-39
2021/01/01 03:45:29;;;;;;;;;;;16.50;63.40;;;;;;4230418;28;19973;-40
2021/01/01 03:47:49;;;;;;;;;;;16.40;64.80;;;;;;4230094;27;19920;-39
2021/01/01 03:50:10;;;;;;;;;;;16.30;64.50;;;;;;4230802;28;20018;-40
2021/01/01 03:52:31;;;;;;;;;;;16.10;65.00;;;;;;4230262;28;19927;-41
2021/01/01 03:54:52;;;;;;;;;;;16.10;65.60;;;;;;4230397;28;19923;-40
2021/01/01 03:57:13;;;;;;;;;;;16.10;65.20;;;;;;4229632;28;19927;-41
2021/01/01 03:59:34;;;;;;;;;;;16.30;64.90;;;;;;4230406;27;19923;-40
2021/01/01 04:01:55;;;;;;;;;;;16.30;64.60;;;;;;4230417;28;19928;-40
2021/01/01 04:04:17;;;;;;;;;;;16.20;64.70;;;;;;4213210;28;19920;-40
2021/01/01 04:06:38;;;;;;;;;;;16.30;64.90;;;;;;4227501;28;19927;-40
2021/01/01 04:08:58;;;;;;;;;;;16.30;64.60;;;;;;4230061;28;19926;-40
2021/01/01 04:11:19;;;;;;;;;;;16.30;64.60;;;;;;4229593;28;19967;-41
2021/01/01 04:13:40;;;;;;;;;;;16.30;64.70;;;;;;4230127;28;19976;-40
2021/01/01 04:16:01;;;;;;;;;;;16.20;64.80;;;;;;4229698;28;19924;-40
2021/01/01 04:18:22;;;;;;;;;;;16.30;64.70;;;;;;4229729;28;19920;-40
2021/01/01 04:20:43;;;;;;;;;;;16.50;64.10;;;;;;4230467;28;19935;-40
2021/01/01 04:23:04;;;;;;;;;;;16.40;63.90;;;;;;4229906;28;19923;-40
2021/01/01 04:25:25;;;;;;;;;;;16.50;64.00;;;;;;4229804;28;19923;-40
2021/01/01 04:27:46;;;;;;;;;;;16.50;63.70;;;;;;4230085;28;20017;-40
2021/01/01 04:30:07;;;;;;;;;;;16.70;63.00;;;;;;4229850;28;19924;-40
2021/01/01 04:32:28;;;;;;;;;;;16.90;62.20;;;;;;4229797;28;20373;-40
2021/01/01 04:34:49;;;;;;;;;;;16.90;62.00;;;;;;4229627;28;20361;-40
2021/01/01 04:37:10;;;;;;;;;;;16.90;62.00;;;;;;4229681;28;20025;-40
2021/01/01 04:39:31;;;;;;;;;;;17.00;61.70;;;;;;4229611;28;20449;-40
2021/01/01 04:41:53;;;;;;;;;;;17.10;61.30;;;;;;4229701;28;20374;-40
2021/01/01 04:44:15;;;;;;;;;;;17.30;60.60;;;;;;4212951;28;20302;-41
2021/01/01 04:46:37;;;;;;;;;;;17.40;60.10;;;;;;4213244;28;19993;-40
2021/01/01 04:48:57;;;;;;;;;;;17.60;59.60;;;;;;4212685;28;19950;-41
2021/01/01 04:51:19;;;;;;;;;;;17.60;59.40;;;;;;4212701;28;19924;-40
2021/01/01 04:53:40;;;;;;;;;;;17.70;59.30;;;;;;4212630;28;19920;-40
2021/01/01 04:56:02;;;;;;;;;;;17.70;59.10;;;;;;4212882;28;19927;-40
2021/01/01 04:58:22;;;;;;;;;;;17.90;58.60;;;;;;4213072;28;20543;-40
2021/01/01 05:00:43;;;;;;;;;;;18.00;58.30;;;;;;4225854;28;19966;-40
2021/01/01 05:03:04;;;;;;;;;;;18.10;58.10;;;;;;4229062;28;20520;-40
2021/01/01 05:05:28;;;;;;;;;;;18.00;58.20;;;;;;4228397;28;19924;-40
2021/01/01 05:07:49;;;;;;;;;;;17.90;58.30;;;;;;4229668;28;19970;-40
2021/01/01 05:10:10;;;;;;;;;;;17.90;58.50;;;;;;4232207;28;19920;-40
2021/01/01 05:12:33;;;;;;;;;;;17.70;58.80;;;;;;4232752;28;19920;-40
2021/01/01 05:14:54;;;;;;;;;;;17.60;59.20;;;;;;4233082;27;20440;-40
2021/01/01 05:17:15;;;;;;;;;;;17.50;59.70;;;;;;4232840;28;19928;-40
2021/01/01 05:19:36;;;;;;;;;;;17.50;59.70;;;;;;4232862;27;19934;-41
2021/01/01 05:22:02;;;;;;;;;;;17.50;59.60;;;;;;4232741;28;19924;-40
2021/01/01 05:24:24;;;;;;;;;;;17.50;59.70;;;;;;4232447;28;19976;-40
2021/01/01 05:26:48;;;;;;;;;;;17.40;60.00;;;;;;4232747;28;20018;-42
2021/01/01 05:29:10;;;;;;;;;;;17.30;60.20;;;;;;4232536;28;19923;-40
2021/01/01 05:31:32;;;;;;;;;;;17.20;60.60;;;;;;4232453;28;20382;-40
2021/01/01 05:33:54;;;;;;;;;;;17.10;61.00;;;;;;4216253;28;20397;-40
2021/01/01 05:36:15;;;;;;;;;;;16.90;61.70;;;;;;4215965;28;19926;-41
2021/01/01 05:38:36;;;;;;;;;;;16.90;61.60;;;;;;4215537;28;20455;-41
2021/01/01 05:40:58;;;;;;;;;;;17.00;61.40;;;;;;4216034;28;19928;-41
2021/01/01 05:43:19;;;;;;;;;;;17.10;61.10;;;;;;4228859;28;19927;-40
2021/01/01 05:45:40;;;;;;;;;;;17.20;60.70;;;;;;4232978;28;20362;-40
2021/01/01 05:48:04;;;;;;;;;;;17.40;60.20;;;;;;4232062;27;19996;-41
2021/01/01 05:50:25;;;;;;;;;;;17.50;59.60;;;;;;4232238;28;20006;-41
2021/01/01 05:52:45;;;;;;;;;;;17.60;59.50;;;;;;4232185;28;19927;-40
2021/01/01 05:55:07;;;;;;;;;;;17.50;59.50;;;;;;4226165;28;19924;-41
2021/01/01 05:57:34;;;;;;;;;;;17.40;59.70;;;;;;4232092;28;19992;-41
2021/01/01 05:59:55;;;;;;;;;;;17.30;60.20;;;;;;4232133;27;20541;-40
2021/01/01 06:02:16;;;;;;;;;;;17.10;60.80;;;;;;4231845;27;19927;-40
2021/01/01 06:04:37;;;;;;;;;;;16.90;61.30;;;;;;4232132;28;20356;-40
2021/01/01 06:06:59;;;;;;;;;;;16.80;62.00;;;;;;4230748;28;20396;-40
2021/01/01 06:09:21;;;;;;;;;;;16.70;62.40;;;;;;4232533;28;19992;-40
2021/01/01 06:11:45;;;;;;;;;;;16.70;62.60;;;;;;4232206;28;19920;-40
2021/01/01 06:14:07;;;;;;;;;;;16.60;62.90;;;;;;4215213;28;19924;-40
2021/01/01 06:16:27;;;;;;;;;;;16.50;63.30;;;;;;4215056;28;20286;-41
2021/01/01 06:18:56;;;;;;;;;;;16.40;63.60;;;;;;4214920;28;19924;-40
2021/01/01 06:21:31;;;;;;;;;;;16.60;63.30;;;;;;4214289;28;19924;-40
2021/01/01 06:23:52;;;;;;;;;;;16.80;62.60;;;;;;4216887;28;20020;-40
2021/01/01 06:26:13;;;;;;;;;;;16.90;62.10;;;;;;4232264;28;20385;-39
2021/01/01 06:28:35;;;;;;;;;;;16.80;62.00;;;;;;4231657;28;19927;-40
2021/01/01 06:30:57;;;;;;;;;;;16.90;61.60;;;;;;4231641;28;19919;-40
2021/01/01 06:33:17;;;;;;;;;;;17.10;61.20;;;;;;4231453;28;20665;-40
2021/01/01 06:35:42;;;;;;;;;;;17.20;60.70;;;;;;4232046;28;20294;-41
2021/01/01 06:38:02;;;;;;;;;;;17.50;59.80;;;;;;4231520;27;20660;-41
2021/01/01 06:40:33;;;;;;;;;;;17.70;59.00;;;;;;4231458;28;19950;-40
2021/01/01 06:42:55;;;;;;;;;;;17.80;58.60;;;;;;4226509;28;19963;-40
2021/01/01 06:45:30;;;;;;;;;;;17.80;58.50;;;;;;4231562;28;19924;-41
2021/01/01 06:47:52;;;;;;;;;;;17.90;58.50;;;;;;4231089;28;19924;-40
2021/01/01 06:50:25;;;;;;;;;;;17.80;58.40;;;;;;4231005;28;19977;-41
2021/01/01 06:52:49;;;;;;;;;;;17.80;58.50;;;;;;4231339;28;19928;-40
2021/01/01 06:55:10;;;;;;;;;;;17.70;58.80;;;;;;4231166;28;19920;-41
2021/01/01 06:57:31;;;;;;;;;;;17.60;59.10;;;;;;4231787;28;19930;-41
2021/01/01 06:59:52;;;;;;;;;;;17.70;59.00;;;;;;4230939;28;19927;-41
2021/01/01 07:02:28;;;;;;;;;;;17.70;58.80;;;;;;4230991;28;20293;-41
2021/01/01 07:04:55;;;;;;;;;;;17.80;58.90;;;;;;4231115;28;19926;-41
2021/01/01 07:07:34;;;;;;;;;;;17.70;59.10;;;;;;4231437;28;19924;-40
2021/01/01 07:09:55;;;;;;;;;;;17.60;59.40;;;;;;4230744;27;19931;-40
2021/01/01 07:12:16;;;;;;;;;;;17.50;59.80;;;;;;4230527;28;19976;-40
2021/01/01 07:14:36;;;;;;;;;;;17.30;60.30;;;;;;4222207;28;19920;-42
2021/01/01 07:16:58;;;;;;;;;;;17.20;60.90;;;;;;4231150;28;19973;-43
2021/01/01 07:19:19;;;;;;;;;;;17.10;61.40;;;;;;4229817;28;19927;-39
2021/01/01 07:21:40;;;;;;;;;;;16.90;62.10;;;;;;4230143;28;20397;-40
2021/01/01 07:24:01;;;;;;;;;;;16.90;62.70;;;;;;4231235;28;20393;-40
2021/01/01 07:26:27;;;;;;;;;;;17.20;61.90;;;;;;4231069;28;20293;-40
2021/01/01 07:28:48;;;;;;;;;;;17.40;60.70;;;;;;4214140;28;19931;-40
2021/01/01 07:31:12;;;;;;;;;;;17.50;60.00;;;;;;4213931;28;19924;-40
2021/01/01 07:33:33;;;;;;;;;;;17.40;59.90;;;;;;4226025;28;19923;-40
2021/01/01 07:35:55;;;;;;;;;;;17.40;60.20;;;;;;4230763;28;19993;-39
2021/01/01 07:38:18;;;;;;;;;;;17.30;60.40;;;;;;4216899;28;20347;-40
2021/01/01 07:40:39;;;;;;;;;;;17.30;60.50;;;;;;4228301;28;19924;-40
2021/01/01 07:43:00;;;;;;;;;;;17.10;60.60;;;;;;4230964;28;19930;-40
2021/01/01 07:45:25;;;;;;;;;;;17.00;61.00;;;;;;4230395;28;20022;-40
2021/01/01 07:47:46;;;;;;;;;;;16.90;61.30;;;;;;4230263;28;19931;-40
2021/01/01 07:50:11;;;;;;;;;;;17.00;61.20;;;;;;4230534;28;20051;-39
2021/01/01 07:52:32;;;;;;;;;;;17.10;60.60;;;;;;4230401;28;20018;-40
2021/01/01 07:54:53;;;;;;;;;;;17.20;59.90;;;;;;4230405;28;19927;-40
2021/01/01 07:57:19;;;;;;;;;;;17.30;59.70;;;;;;4216526;28;20018;-40
2021/01/01 07:59:40;;;;;;;;;;;17.20;59.60;;;;;;4230307;28;19924;-40
2021/01/01 08:02:01;;;;;;;;;;;17.20;59.80;;;;;;4230255;28;19938;-41
2021/01/01 08:04:22;;;;;;;;;;;17.00;60.00;;;;;;4230399;28;19955;-40
2021/01/01 08:06:44;;;;;;;;;;;16.90;60.40;;;;;;4230120;28;19965;-41
2021/01/01 08:09:05;;;;;;;;;;;16.90;60.60;;;;;;4230034;28;19919;-40
2021/01/01 08:11:27;;;;;;;;;;;16.80;60.80;;;;;;4229541;28;19923;-42
2021/01/01 08:13:48;;;;;;;;;;;16.70;61.20;;;;;;4228504;28;19924;-40
2021/01/01 08:16:13;;;;;;;;;;;16.60;61.50;;;;;;4229391;28;20623;-40
2021/01/01 08:18:33;;;;;;;;;;;16.50;62.10;;;;;;4229854;28;19919;-41
2021/01/01 08:20:58;;;;;;;;;;;16.40;62.50;;;;;;4229243;28;19923;-40
2021/01/01 08:23:18;;;;;;;;;;;16.30;62.90;;;;;;4229879;28;19927;-41
2021/01/01 08:25:39;;;;;;;;;;;16.50;62.20;;;;;;4229814;28;19923;-40
2021/01/01 08:28:02;;;;;;;;;;;16.80;61.10;;;;;;4229428;28;20010;-40
2021/01/01 08:30:24;;;;;;;;;;;17.00;60.00;;;;;;4229333;28;19920;-40
2021/01/01 08:32:44;;;;;;;;;;;17.20;59.50;;;;;;4228659;28;19947;-40
2021/01/01 08:35:08;;;;;;;;;;;17.20;59.30;;;;;;4226283;28;19919;-40
2021/01/01 08:37:29;;;;;;;;;;;17.10;59.40;;;;;;4219606;28;19949;-40
2021/01/01 08:40:00;;;;;;;;;;;17.00;59.70;;;;;;4229457;28;19920;-40
2021/01/01 08:42:22;;;;;;;;;;;16.90;60.10;;;;;;4229522;28;20034;-40
2021/01/01 08:44:45;;;;;;;;;;;16.70;60.60;;;;;;4228698;28;19969;-40
2021/01/01 08:47:06;;;;;;;;;;;16.50;61.00;;;;;;4221244;28;19935;-40
2021/01/01 08:49:32;;;;;;;;;;;16.40;61.50;;;;;;4229280;28;19930;-41
2021/01/01 08:51:52;;;;;;;;;;;16.30;62.10;;;;;;4220679;28;19919;-40
2021/01/01 08:54:28;;;;;;;;;;;16.20;62.20;;;;;;4226212;28;19930;-39
2021/01/01 08:56:56;;;;;;;;;;;16.20;62.20;;;;;;4229186;28;19927;-40
2021/01/01 08:59:17;;;;;;;;;;;16.20;62.30;;;;;;4229296;28;19923;-39
2021/01/01 09:01:39;;;;;;;;;;;16.10;62.60;;;;;;4228954;28;20370;-40
2021/01/01 09:04:01;;;;;;;;;;;15.90;62.90;;;;;;4217645;28;19923;-39
2021/01/01 09:06:22;;;;;;;;;;;15.80;63.30;;;;;;4227996;28;20007;-40
2021/01/01 09:08:43;;;;;;;;;;;15.80;63.70;;;;;;4221856;28;20014;-40
2021/01/01 09:11:03;;;;;;;;;;;15.90;63.40;;;;;;4229561;28;19927;-44
2021/01/01 09:13:26;;;;;;;;;;;16.10;62.50;;;;;;4228923;28;20331;-40
2021/01/01 09:15:47;;;;;;;;;;;16.20;61.90;;;;;;4228690;28;19928;-41
2021/01/01 09:18:10;;;;;;;;;;;16.30;61.70;;;;;;4227990;28;19964;-41
2021/01/01 09:20:30;;;;;;;;;;;16.40;61.20;;;;;;4212432;28;19924;-41
2021/01/01 09:22:58;;;;;;;;;;;16.40;60.90;;;;;;4223252;28;19946;-39
2021/01/01 09:25:20;;;;;;;;;;;16.40;60.80;;;;;;4228886;28;19919;-39
2021/01/01 09:29:41;;;;;;;0.75;0.75;;;16.30;60.80;;;;;;4227401;27;20382;-40
2021/01/01 09:32:06;;;;;;;0.25;0.25;;;16.30;61.70;;;;;;4226829;28;20147;-40
2021/01/01 09:34:26;;;;;;;0.28;0.13;;;16.40;61.30;;;;;;4227023;28;20113;-40
2021/01/01 09:36:47;;;;;;;0.47;0.47;;;16.30;61.30;;;;;;4226691;28;20044;-40
2021/01/01 09:39:09;;;;;;;0.63;0.63;;;16.40;61.20;;;;;;4225564;28;20058;-39
2021/01/01 09:41:30;;;;;;;1.67;1.08;;;16.50;60.60;;;;;;4223059;28;20054;-40
2021/01/01 09:43:50;;;;;;;1.00;1.00;;;16.60;60.00;;;;;;4226333;28;20150;-40
2021/01/01 09:46:12;;;;;;;4.60;1.60;;;16.70;59.80;;;;;;4226346;28;20097;-40
2021/01/01 09:48:33;;;;;;;0.82;0.82;;;16.70;60.00;;;;;;4225957;28;20092;-39
2021/01/01 09:50:54;;;;;;;0.35;0.35;;;16.60;60.30;;;;;;4226116;28;20174;-39
2021/01/01 09:53:15;;;;;;;0.20;0.20;;;16.50;61.40;;;;;;4226243;28;20067;-40
2021/01/01 09:55:36;;;;;;;1.83;0.55;;;16.30;61.00;;;;;;4209663;28;20083;-41
2021/01/01 09:57:57;;;;;;;0.70;0.70;;;16.20;61.40;;;;;;4209483;28;20059;-39
2021/01/01 10:00:18;;;;;;;0.47;0.47;;;16.20;62.40;;;;;;4209928;28;20068;-40
2021/01/01 10:02:41;;;;;;;0.45;0.45;;;16.10;61.50;;;;;;4226201;28;20048;-40
2021/01/01 10:05:03;;;;;;;0.20;0.20;;;16.10;61.70;;;;;;4226486;28;20193;-40
2021/01/01 10:07:26;;;;;;;0.88;0.88;;;16.00;62.10;;;;;;4226317;28;20048;-40
2021/01/01 10:09:50;;;;;;;2.65;2.22;;;15.90;62.50;;;;;;4226016;28;20048;-40
2021/01/01 10:12:13;;;;;;;0.20;0.20;;;15.80;62.80;;;;;;4225784;28;20405;-40
2021/01/01 10:14:35;;;;;;;0.10;0.10;;;15.70;63.10;;;;;;4226643;28;20055;-40
2021/01/01 10:16:56;;;;;;;0.40;0.40;;;15.70;63.60;;;;;;4225983;28;20136;-40
2021/01/01 10:19:17;;;;;;;1.17;1.08;;;15.60;63.90;;;;;;4225782;28;20056;-39
2021/01/01 10:21:39;;;;;;;1.88;1.20;;;15.60;63.90;;;;;;4225855;28;20108;-39
2021/01/01 10:23:59;;;;;;;0.43;0.43;;;15.60;63.90;;;;;;4225710;28;20085;-40
2021/01/01 10:26:21;;;;;;;;;;;15.60;64.10;;;;;;4226365;28;20399;-41
2021/01/01 10:28:44;;;;;;;4.65;1.90;;;15.50;64.20;;;;;;4224954;28;20036;-40
2021/01/01 10:31:05;;;;;;;0.28;0.28;;;15.50;64.10;;;;;;4225382;28;20192;-40
2021/01/01 10:33:25;;;;;;;0.30;0.30;;;15.50;64.00;;;;;;4225223;28;20044;-40
2021/01/01 10:35:47;;;;;;;0.65;0.65;;;15.50;64.20;;;;;;4226098;28;20209;-40
2021/01/01 10:38:08;;;;;;;1.38;1.23;;;15.50;64.30;;;;;;4225041;28;20843;-40
2021/01/01 10:40:29;;;;;;;0.25;0.25;;;15.60;64.20;;;;;;4201374;28;20048;-40
2021/01/01 10:42:50;;;;;;;0.10;0.10;;;15.70;63.40;;;;;;4197795;28;20099;-40
2021/01/01 10:45:21;;;;;;;0.10;0.10;;;15.90;62.80;;;;;;4214547;28;20052;-41
2021/01/01 10:47:42;;;;;;;1.15;1.15;;;16.10;62.20;;;;;;4213961;28;20074;-43
2021/01/01 10:50:03;;;;;;;0.80;0.80;;;16.30;61.30;;;;;;4213791;28;20052;-40
2021/01/01 10:52:25;;;;;;;0.90;0.90;;;16.50;60.30;;;;;;4212535;28;20051;-41
2021/01/01 10:54:46;;;;;;;0.10;0.10;;;16.70;59.80;;;;;;4213844;28;20052;-40
2021/01/01 10:57:07;;;;;;;0.85;0.85;;;16.60;59.70;;;;;;4213776;28;20418;-41
2021/01/01 10:59:28;;;;;;;0.15;0.15;;;16.70;59.90;;;;;;4204889;28;20066;-40
2021/01/01 11:01:54;;;;;;;0.77;0.77;;;16.60;59.90;;;;;;4214136;28;20068;-40
2021/01/01 11:04:15;;;;;;;0.57;0.57;;;16.50;60.10;;;;;;4214037;28;20094;-41
2021/01/01 11:06:36;;;;;;;0.10;0.10;;;16.50;60.50;;;;;;4213010;28;20474;-40
2021/01/01 11:08:58;;;;;;;0.47;0.35;;;16.40;60.90;;;;;;4213407;28;20080;-41
2021/01/01 11:11:23;;;;;;;2.30;1.58;;;16.40;60.90;;;;;;4213905;28;20048;-40
2021/01/01 11:13:46;;;;;;;1.20;1.20;;;16.40;60.90;;;;;;4214276;28;20110;-40
2021/01/01 12:22:53;;;;;;;0.10;0.10;;;16.70;60.70;;;;;;4213014;28;20052;-40
2021/01/01 12:25:14;;;;;;;0.20;0.20;;;16.60;60.90;;;;;;4213281;28;20054;-39
2021/01/01 12:27:40;;;;;;;1.65;0.73;;;16.60;61.50;;;;;;4213068;28;20101;-40
2021/01/01 12:30:01;;;;;;;4.75;1.85;;;16.40;61.70;;;;;;4213118;28;20415;-39
2021/01/01 12:32:23;;;;;;;0.40;0.40;;;16.40;62.30;;;;;;4213086;28;20464;-40
2021/01/01 12:34:45;;;;;;;1.83;1.13;;;16.50;62.00;;;;;;4212964;28;20040;-40
2021/01/01 12:37:06;;;;;;;0.30;0.30;;;16.60;61.50;;;;;;4212706;28;20051;-41
2021/01/01 12:39:27;;;;;;;0.00;0.00;;;16.60;61.10;;;;;;4212710;28;20522;-40
2021/01/01 12:41:47;;;;;;;0.00;0.00;;;16.70;61.20;;;;;;4212835;28;20422;-40
2021/01/01 12:44:09;;;;;;;0.75;0.75;;;16.60;61.50;;;;;;4212697;28;20785;-40
2021/01/01 12:46:30;;;;;;;0.40;0.40;;;16.50;61.80;;;;;;4212769;28;20056;-40
2021/01/01 12:48:51;;;;;;;0.00;0.00;;;16.40;62.30;;;;;;4211750;28;20051;-40
2021/01/01 12:51:12;;;;;;;4.35;0.85;;;16.20;63.70;;;;;;4212840;28;20106;-40
2021/01/01 12:53:33;;;;;;;0.00;0.00;;;16.30;63.10;;;;;;4212836;28;20776;-39
2021/01/01 12:55:54;;;;;;;0.10;0.10;;;16.40;62.70;;;;;;4212768;28;20555;-39
2021/01/01 12:58:15;;;;;;;0.00;0.00;;;16.50;62.00;;;;;;4212830;28;20113;-40
2021/01/01 13:00:37;;;;;;;0.00;0.00;;;16.70;61.50;;;;;;4212689;28;20494;-39
2021/01/01 13:02:59;;;;;;;0.10;0.10;;;16.80;61.00;;;;;;4212166;28;20084;-40
2021/01/01 13:05:20;;;;;;;0.08;0.08;;;16.80;61.10;;;;;;4212489;28;20076;-40
2021/01/01 13:07:42;;;;;;;0.00;0.00;;;16.80;60.90;;;;;;4212455;28;20048;-39
2021/01/01 13:10:03;;;;;;;0.00;0.00;;;16.80;60.90;;;;;;4212313;28;20052;-39
2021/01/01 13:12:24;;;;;;;0.38;0.38;;;16.80;61.10;;;;;;4212434;28;20048;-39
2021/01/01 13:14:45;;;;;;;0.30;0.30;;;16.70;61.50;;;;;;4212466;28;20111;-40
2021/01/01 13:17:07;;;;;;;0.00;0.00;;;16.60;61.80;;;;;;4212406;28;20059;-49
2021/01/01 13:19:28;;;;;;;0.10;0.10;;;16.60;62.10;;;;;;4212390;28;20126;-40
2021/01/01 13:21:49;;;;;;;0.63;0.63;;;16.70;61.80;;;;;;4212291;28;20055;-40
2021/01/01 13:24:10;;;;;;;2.72;0.80;;;16.90;61.10;;;;;;4212447;28;20097;-41
2021/01/01 13:26:32;;;;;;;0.55;0.55;;;17.00;60.80;;;;;;4212337;28;20048;-40
2021/01/01 13:28:54;;;;;;;0.75;0.75;;;16.90;60.80;;;;;;4212005;28;20067;-40
2021/01/01 13:31:15;;;;;;;0.10;0.10;;;16.80;61.30;;;;;;4212335;28;20426;-40
2021/01/01 13:33:37;;;;;;;1.25;1.25;;;16.70;61.80;;;;;;4212136;28;20519;-40
2021/01/01 13:35:58;;;;;;;0.03;0.03;;;16.60;62.10;;;;;;4212153;28;20084;-40
2021/01/01 13:38:20;;;;;;;0.00;0.00;;;16.70;62.10;;;;;;4211931;28;20048;-41
2021/01/01 13:40:40;;;;;;;0.00;0.00;;;16.80;62.00;;;;;;4212181;28;20056;-39
2021/01/01 13:43:01;;;;;;;0.05;0.05;;;16.70;62.00;;;;;;4212135;28;20491;-40
2021/01/01 13:45:22;;;;;;;0.03;0.03;;;16.70;62.30;;;;;;4212058;28;20078;-40
2021/01/01 13:47:43;;;;;;;0.88;0.88;;;16.70;63.30;;;;;;4212202;28;20075;-40
2021/01/01 13:50:06;;;;;;;0.00;0.00;;;16.60;62.40;;;;;;4212059;28;20056;-40
2021/01/01 13:52:26;;;;;;;0.00;0.00;;;16.60;62.80;;;;;;4195600;28;20060;-40
2021/01/01 13:54:47;;;;;;;2.60;0.43;;;16.50;63.10;;;;;;4195442;28;20107;-40
2021/01/01 13:57:08;;;;;;;0.10;0.10;;;16.40;63.50;;;;;;4195216;28;20055;-40
2021/01/01 13:59:29;;;;;;;0.88;0.88;;;16.30;63.90;;;;;;4204983;28;20071;-40
2021/01/01 14:01:49;;;;;;;0.08;0.08;;;16.40;64.00;;;;;;4211980;28;20099;-41
2021/01/01 14:04:10;;;;;;;0.00;0.00;;;16.40;63.80;;;;;;4211861;28;20078;-40
2021/01/01 14:06:33;;;;;;;0.10;0.10;;;16.40;63.80;;;;;;4211986;28;20055;-40
2021/01/01 14:08:55;;;;;;;0.00;0.00;;;16.40;64.10;;;;;;4211867;28;20113;-39
2021/01/01 14:11:16;;;;;;;0.10;0.10;;;16.60;63.80;;;;;;4211856;28;20052;-40
2021/01/01 14:13:37;;;;;;;0.00;0.00;;;16.80;62.80;;;;;;4211857;28;20798;-40
2021/01/01 14:15:58;;;;;;;0.00;0.00;;;16.90;62.20;;;;;;4214051;28;20501;-40
2021/01/01 14:18:19;;;;;;;0.00;0.00;;;16.90;62.00;;;;;;4214902;28;20093;-40
2021/01/01 14:20:40;;;;;;;0.00;0.00;;;16.90;62.20;;;;;;4215249;28;20048;-40
2021/01/01 14:23:01;;;;;;;0.00;0.00;;;16.80;62.30;;;;;;4215074;28;20048;-40
2021/01/01 14:25:22;;;;;;;0.00;0.00;;;16.80;62.30;;;;;;4215013;28;20059;-40
2021/01/01 14:27:43;;;;;;;0.65;0.65;;;16.90;62.20;;;;;;4214712;28;20075;-40